Strona główna
METAR-TAF:

METAR-TAF

Lotnisko :

Farmingdale, Nowy Jork, Stany Zjednoczone

Szerokość geograficzna: 40-44-03N, Długość geograficzna: 073-25-01W, wysokość: 24 m

Aktualna obserwacja pogody

Raport powstał 1 godzina i 6 minut temu, godzina 00:53 UTC
Wiatr 3 kt od wschodnio-południowy wschód
Temperatura 9°C
Wilgotność 87%
Ciśnienie 1016 hPa
Widzialność: 16.1 km
bezchmurnie

METAR: KFRG 060053Z AUTO 11003KT 10SM CLR 09/07 A3000 RMK AO2 SLP158 T00940067

czas: 21:59 (01:59 UTC)


TAF: brakujący

Obserwacja i prognoza pogody dla ponad 4000 lotnisk (raport METAR i TAF).

Dostępne stacje oznaczono żółtymi i czerwonymi punktami na mapie.

Najedź kursorem aby zobaczyć nazwę stacji.

Kliknij aby zobaczyć obserwacje i prognozy pogody.

Aby zmienić mapę: kliknij na zielony przycisk z czarnym krzyżykiem, aby powiększyć; na zielony przycisk z myślnikiem, aby pomniejszyć; na zielone strzałki, aby przejść do map sąsiednich.


METAR-TAF: